createdAt,value
2023-01-09T00:01:25.762Z,7.50
2023-01-09T00:03:54.725Z,7.50
2023-01-09T00:06:22.251Z,7.50
2023-01-09T00:08:49.729Z,7.50
2023-01-09T00:11:17.347Z,7.50
2023-01-09T00:13:44.786Z,7.50
2023-01-09T00:16:12.205Z,7.60
2023-01-09T00:18:40.108Z,7.60
2023-01-09T00:21:10.186Z,7.60
2023-01-09T00:23:37.860Z,7.50
2023-01-09T00:26:17.893Z,7.50
2023-01-09T00:28:46.485Z,7.50
2023-01-09T00:31:14.102Z,7.50
2023-01-09T00:34:03.205Z,7.50
2023-01-09T00:36:30.668Z,7.40
2023-01-09T00:38:58.354Z,7.40
2023-01-09T00:41:40.405Z,7.40
2023-01-09T00:44:31.997Z,7.40
2023-01-09T00:47:05.235Z,7.40
2023-01-09T00:49:35.523Z,7.40
2023-01-09T00:52:05.519Z,7.40
2023-01-09T00:54:33.082Z,7.40
2023-01-09T00:57:00.917Z,7.30
2023-01-09T00:59:28.633Z,7.30
2023-01-09T01:01:56.265Z,7.30
2023-01-09T01:04:42.411Z,7.30
2023-01-09T01:07:28.378Z,7.30
2023-01-09T01:09:55.738Z,7.30
2023-01-09T01:12:23.527Z,7.30
2023-01-09T01:14:52.289Z,7.30
2023-01-09T01:17:20.059Z,7.40
2023-01-09T01:19:47.573Z,7.40
2023-01-09T01:22:15.043Z,7.40
2023-01-09T01:24:42.481Z,7.30
2023-01-09T01:27:09.970Z,7.30
2023-01-09T01:29:37.411Z,7.30
2023-01-09T01:32:05.088Z,7.30
2023-01-09T01:34:32.538Z,7.30
2023-01-09T01:37:00.013Z,7.30
2023-01-09T01:39:27.491Z,7.20
2023-01-09T01:41:54.801Z,7.20
2023-01-09T01:45:01.512Z,7.20
2023-01-09T01:47:50.890Z,7.10
2023-01-09T01:50:32.934Z,7.10
2023-01-09T01:53:13.752Z,7.10
2023-01-09T01:56:07.080Z,7.10
2023-01-09T01:58:45.991Z,7.00
2023-01-09T02:01:14.074Z,7.00
2023-01-09T02:03:43.338Z,6.90
2023-01-09T02:06:11.911Z,7.00
2023-01-09T02:08:39.511Z,7.00
2023-01-09T02:11:07.502Z,6.90
2023-01-09T02:13:38.821Z,6.90
2023-01-09T02:16:32.819Z,6.80
2023-01-09T02:19:18.775Z,6.90
2023-01-09T02:22:02.661Z,6.90
2023-01-09T02:25:26.960Z,6.90
2023-01-09T02:28:26.735Z,6.90
2023-01-09T02:31:13.674Z,6.90
2023-01-09T02:33:53.116Z,6.90
2023-01-09T02:36:44.867Z,6.90
2023-01-09T02:39:31.239Z,6.90
2023-01-09T02:42:04.867Z,6.90
2023-01-09T02:44:35.971Z,6.90
2023-01-09T02:47:07.471Z,6.90
2023-01-09T02:49:38.222Z,6.90
2023-01-09T02:52:23.488Z,6.90
2023-01-09T02:54:56.312Z,6.80
2023-01-09T02:57:46.276Z,6.80
2023-01-09T03:00:19.810Z,6.80
2023-01-09T03:02:52.695Z,6.80
2023-01-09T03:05:30.155Z,6.80
2023-01-09T03:08:08.438Z,6.80
2023-01-09T03:10:50.445Z,6.80
2023-01-09T03:13:22.101Z,6.70
2023-01-09T03:15:53.261Z,6.70
2023-01-09T03:18:22.561Z,6.70
2023-01-09T03:20:51.508Z,6.60
2023-01-09T03:23:18.958Z,6.60
2023-01-09T03:25:46.270Z,6.60
2023-01-09T03:28:26.898Z,6.60
2023-01-09T03:30:54.977Z,6.60
2023-01-09T03:33:22.513Z,6.60
2023-01-09T03:35:50.092Z,6.50
2023-01-09T03:38:17.506Z,6.50
2023-01-09T03:40:45.029Z,6.50
2023-01-09T03:43:12.407Z,6.50
2023-01-09T03:45:39.808Z,6.50
2023-01-09T03:48:07.263Z,6.50
2023-01-09T03:50:34.805Z,6.50
2023-01-09T03:53:02.395Z,6.40
2023-01-09T03:55:29.863Z,6.40
2023-01-09T03:57:57.303Z,6.40
2023-01-09T04:00:24.799Z,6.30
2023-01-09T04:02:53.153Z,6.30
2023-01-09T04:05:20.578Z,6.30
2023-01-09T04:07:48.050Z,6.30
2023-01-09T04:10:15.749Z,6.30
2023-01-09T04:12:43.160Z,6.30
2023-01-09T04:15:10.960Z,6.30
2023-01-09T04:17:38.340Z,6.30
2023-01-09T04:20:06.225Z,6.30
2023-01-09T04:22:33.614Z,6.30
2023-01-09T04:25:00.955Z,6.30
2023-01-09T04:27:28.619Z,6.30
2023-01-09T04:29:56.062Z,6.30
2023-01-09T04:32:23.319Z,6.30
2023-01-09T04:34:50.566Z,6.30
2023-01-09T04:37:17.948Z,6.30
2023-01-09T04:39:45.973Z,6.20
2023-01-09T04:42:13.432Z,6.20
2023-01-09T04:44:40.936Z,6.20
2023-01-09T04:47:08.410Z,6.20
2023-01-09T04:49:35.801Z,6.20
2023-01-09T04:52:03.341Z,6.20
2023-01-09T04:54:30.810Z,6.20
2023-01-09T04:56:58.193Z,6.20
2023-01-09T04:59:25.593Z,6.20
2023-01-09T05:01:54.782Z,6.20
2023-01-09T05:04:22.336Z,6.20
2023-01-09T05:06:49.784Z,6.20
2023-01-09T05:09:17.146Z,6.20
2023-01-09T05:11:44.880Z,6.30
2023-01-09T05:14:12.962Z,6.30
2023-01-09T05:16:40.445Z,6.30
2023-01-09T05:19:07.878Z,6.30
2023-01-09T05:21:35.382Z,6.30
2023-01-09T05:24:02.852Z,6.30
2023-01-09T05:26:30.272Z,6.30
2023-01-09T05:28:57.783Z,6.30
2023-01-09T05:31:26.977Z,6.30
2023-01-09T05:33:54.541Z,6.30
2023-01-09T05:36:21.939Z,6.30
2023-01-09T05:38:49.269Z,6.30
2023-01-09T05:41:16.701Z,6.30
2023-01-09T05:43:44.096Z,6.30
2023-01-09T05:46:11.566Z,6.30
2023-01-09T05:48:39.021Z,6.30
2023-01-09T05:51:06.491Z,6.40
2023-01-09T05:53:33.846Z,6.30
2023-01-09T05:56:01.316Z,6.30
2023-01-09T05:58:28.668Z,6.30
2023-01-09T06:00:56.107Z,6.30
2023-01-09T06:03:23.562Z,6.30
2023-01-09T06:05:51.806Z,6.30
2023-01-09T06:08:19.307Z,6.30
2023-01-09T06:10:47.234Z,6.30
2023-01-09T06:13:14.893Z,6.30
2023-01-09T06:15:42.761Z,6.20
2023-01-09T06:18:10.167Z,6.20
2023-01-09T06:20:37.578Z,6.20
2023-01-09T06:23:04.969Z,6.20
2023-01-09T06:25:32.348Z,6.20
2023-01-09T06:27:59.778Z,6.30
2023-01-09T06:30:27.325Z,6.20
2023-01-09T06:32:54.741Z,6.30
2023-01-09T06:35:22.478Z,6.20
2023-01-09T06:37:50.260Z,6.30
2023-01-09T06:40:18.232Z,6.20
2023-01-09T06:42:47.188Z,6.20
2023-01-09T06:45:15.004Z,6.30
2023-01-09T06:47:42.530Z,6.30
2023-01-09T06:50:11.059Z,6.30
2023-01-09T06:52:39.390Z,6.20
2023-01-09T06:55:07.769Z,6.20
2023-01-09T06:57:35.369Z,6.20
2023-01-09T07:00:03.859Z,6.30
2023-01-09T07:02:31.403Z,6.30
2023-01-09T07:04:58.810Z,6.30
2023-01-09T07:07:26.294Z,6.40
2023-01-09T07:09:53.748Z,6.30
2023-01-09T07:12:21.078Z,6.30
2023-01-09T07:14:48.547Z,6.30
2023-01-09T07:17:15.969Z,6.40
2023-01-09T07:19:43.379Z,6.30
2023-01-09T07:22:11.137Z,6.30
2023-01-09T07:24:38.483Z,6.30
2023-01-09T07:27:06.121Z,6.30
2023-01-09T07:29:33.575Z,6.30
2023-01-09T07:32:00.952Z,6.30
2023-01-09T07:34:28.361Z,6.30
2023-01-09T07:36:55.568Z,6.20
2023-01-09T07:39:23.416Z,6.30
2023-01-09T07:41:51.028Z,6.30
2023-01-09T07:44:18.605Z,6.20
2023-01-09T07:46:46.037Z,6.30
2023-01-09T07:49:13.562Z,6.30
2023-01-09T07:51:43.167Z,6.20
2023-01-09T07:54:12.672Z,6.20
2023-01-09T07:56:40.989Z,6.30
2023-01-09T07:59:08.496Z,6.30
2023-01-09T08:01:36.034Z,6.20
2023-01-09T08:04:04.280Z,6.20
2023-01-09T08:06:32.318Z,6.20
2023-01-09T08:09:00.200Z,6.20
2023-01-09T08:11:27.625Z,6.20
2023-01-09T08:13:55.006Z,6.20
2023-01-09T08:16:22.530Z,6.20
2023-01-09T08:18:49.942Z,6.20
2023-01-09T08:21:17.278Z,6.20
2023-01-09T08:23:45.641Z,6.30
2023-01-09T08:26:13.159Z,6.20
2023-01-09T08:28:40.582Z,6.20
2023-01-09T08:31:08.313Z,6.30
2023-01-09T08:33:35.924Z,6.30
2023-01-09T08:36:03.995Z,6.30
2023-01-09T08:38:31.427Z,6.30
2023-01-09T08:40:58.769Z,6.30
2023-01-09T08:43:44.907Z,6.20
2023-01-09T08:46:38.457Z,6.20
2023-01-09T08:49:05.969Z,6.30
2023-01-09T08:51:33.442Z,6.30
2023-01-09T08:54:00.831Z,6.30
2023-01-09T08:56:28.327Z,6.30
2023-01-09T08:58:55.726Z,6.40
2023-01-09T09:01:23.163Z,6.40
2023-01-09T09:03:50.530Z,6.50
2023-01-09T09:06:17.966Z,6.40
2023-01-09T09:08:45.318Z,6.50
2023-01-09T09:11:12.803Z,6.50
2023-01-09T09:13:40.176Z,6.50
2023-01-09T09:16:07.738Z,6.50
2023-01-09T09:18:35.219Z,6.50
2023-01-09T09:21:02.563Z,6.50
2023-01-09T09:23:29.927Z,6.60
2023-01-09T09:25:58.024Z,6.60
2023-01-09T09:28:25.374Z,6.70
2023-01-09T09:30:52.784Z,6.70
2023-01-09T09:33:20.199Z,6.70
2023-01-09T09:35:47.601Z,6.80
2023-01-09T09:38:15.236Z,6.90
2023-01-09T09:41:29.506Z,7.00
2023-01-09T09:44:24.468Z,7.00
2023-01-09T09:47:22.777Z,7.00
2023-01-09T09:49:55.229Z,7.10
2023-01-09T09:52:50.059Z,7.10
2023-01-09T09:55:37.044Z,7.10
2023-01-09T09:58:26.010Z,7.20
2023-01-09T10:00:54.171Z,7.30
2023-01-09T10:03:44.208Z,7.30
2023-01-09T10:06:29.708Z,7.40
2023-01-09T10:09:09.036Z,7.40
2023-01-09T10:11:51.363Z,7.40
2023-01-09T10:14:24.234Z,7.40
2023-01-09T10:16:54.958Z,7.40
2023-01-09T10:20:03.963Z,7.40
2023-01-09T10:23:04.695Z,7.50
2023-01-09T10:25:36.973Z,7.50
2023-01-09T10:28:48.042Z,7.50
2023-01-09T10:31:18.621Z,7.50
2023-01-09T10:34:07.190Z,7.50
2023-01-09T10:36:55.598Z,7.60
2023-01-09T10:39:55.746Z,7.70
2023-01-09T10:42:44.163Z,7.70
2023-01-09T10:45:14.266Z,7.80
2023-01-09T10:47:43.284Z,7.80
2023-01-09T10:50:23.146Z,7.90
2023-01-09T10:52:53.409Z,7.80
2023-01-09T10:55:49.566Z,7.80
2023-01-09T10:58:19.066Z,7.80
2023-01-09T11:00:48.326Z,7.90
2023-01-09T11:03:18.165Z,8.00
2023-01-09T11:05:55.095Z,8.10
2023-01-09T11:08:37.212Z,8.00
2023-01-09T11:11:05.236Z,8.10
2023-01-09T11:13:34.588Z,8.10
2023-01-09T11:16:11.156Z,8.20
2023-01-09T11:18:47.705Z,8.30
2023-01-09T11:21:30.489Z,8.30
2023-01-09T11:24:17.727Z,8.40
2023-01-09T11:26:53.525Z,8.50
2023-01-09T11:29:26.718Z,8.50
2023-01-09T11:31:56.468Z,8.60
2023-01-09T11:34:32.963Z,8.60
2023-01-09T11:37:05.110Z,8.60
2023-01-09T11:39:35.018Z,8.60
2023-01-09T11:42:05.299Z,8.60
2023-01-09T11:44:33.237Z,8.60
2023-01-09T11:47:00.698Z,8.60
2023-01-09T11:49:30.378Z,8.70
2023-01-09T11:52:11.300Z,8.80
2023-01-09T11:54:45.193Z,8.80
2023-01-09T11:57:12.943Z,8.80
2023-01-09T11:59:40.486Z,8.80
2023-01-09T12:02:41.852Z,8.90
2023-01-09T12:05:18.506Z,8.90
2023-01-09T12:08:06.082Z,8.90
2023-01-09T12:10:36.210Z,8.90
2023-01-09T12:13:18.248Z,8.90
2023-01-09T12:16:24.142Z,9.00
2023-01-09T12:19:09.509Z,9.00
2023-01-09T12:22:02.602Z,9.00
2023-01-09T12:24:33.180Z,9.00
2023-01-09T12:27:30.074Z,9.00
2023-01-09T12:30:33.727Z,9.00
2023-01-09T12:33:39.460Z,9.10
2023-01-09T12:36:35.417Z,9.20
2023-01-09T12:39:50.202Z,9.50
2023-01-09T12:42:35.459Z,9.70
2023-01-09T12:45:23.655Z,9.80
2023-01-09T12:47:52.663Z,10.00
2023-01-09T12:50:55.056Z,10.30
2023-01-09T12:53:32.402Z,10.10
2023-01-09T12:56:20.160Z,9.80
2023-01-09T12:58:50.124Z,9.60
2023-01-09T13:01:34.629Z,9.50
2023-01-09T13:04:10.911Z,9.40
2023-01-09T13:06:43.605Z,9.30
2023-01-09T13:09:10.902Z,9.20
2023-01-09T13:11:43.589Z,9.20
2023-01-09T13:14:23.581Z,9.30
2023-01-09T13:16:55.298Z,9.60
2023-01-09T13:19:37.549Z,9.90
2023-01-09T13:22:07.458Z,9.90
2023-01-09T13:24:54.064Z,9.60
2023-01-09T13:27:25.033Z,9.50
2023-01-09T13:30:05.769Z,9.30
2023-01-09T13:32:38.938Z,9.30
2023-01-09T13:35:13.577Z,9.20
2023-01-09T13:37:42.787Z,9.20
2023-01-09T13:40:32.907Z,9.20
2023-01-09T13:43:06.562Z,9.30
2023-01-09T13:45:39.173Z,9.30
2023-01-09T13:48:14.562Z,9.30
2023-01-09T13:50:42.505Z,9.30
2023-01-09T13:53:19.199Z,9.30
2023-01-09T13:55:59.284Z,9.20
2023-01-09T13:58:51.063Z,9.20
2023-01-09T14:01:24.627Z,9.20
2023-01-09T14:04:14.867Z,9.20
2023-01-09T14:06:44.961Z,9.20
2023-01-09T14:09:20.472Z,9.30
2023-01-09T14:11:49.045Z,9.30
2023-01-09T14:14:37.486Z,9.30
2023-01-09T14:17:23.380Z,9.40
2023-01-09T14:19:56.793Z,9.40
2023-01-09T14:22:29.615Z,9.40
2023-01-09T14:25:06.065Z,9.40
2023-01-09T14:27:55.358Z,9.30
2023-01-09T14:30:28.526Z,9.20
2023-01-09T14:33:00.185Z,9.20
2023-01-09T14:35:34.522Z,9.10
2023-01-09T14:38:22.780Z,9.10
2023-01-09T14:40:56.227Z,9.10
2023-01-09T14:43:45.557Z,9.10
2023-01-09T14:46:17.147Z,9.10
2023-01-09T14:49:07.842Z,9.00
2023-01-09T14:51:38.847Z,9.00
2023-01-09T14:54:44.071Z,9.00
2023-01-09T14:57:25.014Z,8.90
2023-01-09T15:00:05.507Z,8.80
2023-01-09T15:02:36.778Z,8.80
2023-01-09T15:05:11.180Z,8.80
2023-01-09T15:07:50.285Z,8.80
2023-01-09T15:10:22.391Z,8.80
2023-01-09T15:12:52.675Z,8.80
2023-01-09T15:15:22.199Z,8.80
2023-01-09T15:17:59.224Z,8.70
2023-01-09T15:20:31.286Z,8.60
2023-01-09T15:23:00.911Z,8.50
2023-01-09T15:25:38.889Z,8.50
2023-01-09T15:28:25.102Z,8.50
2023-01-09T15:30:58.744Z,8.40
2023-01-09T15:33:26.355Z,8.30
2023-01-09T15:36:00.194Z,8.30
2023-01-09T15:38:29.708Z,8.30
2023-01-09T15:41:05.106Z,8.20
2023-01-09T15:43:33.299Z,8.20
2023-01-09T15:46:01.329Z,8.20
2023-01-09T15:48:32.475Z,8.10
2023-01-09T15:51:06.082Z,8.10
2023-01-09T15:53:34.231Z,8.10
2023-01-09T15:56:25.076Z,8.10
2023-01-09T15:58:54.439Z,8.00
2023-01-09T16:01:32.068Z,8.00
2023-01-09T16:04:11.445Z,8.00
2023-01-09T16:06:50.256Z,8.00
2023-01-09T16:09:19.134Z,8.00
2023-01-09T16:11:53.160Z,8.00
2023-01-09T16:14:30.588Z,8.00
2023-01-09T16:17:04.516Z,7.90
2023-01-09T16:19:51.173Z,7.90
2023-01-09T16:22:33.102Z,7.90
2023-01-09T16:25:03.188Z,7.90
2023-01-09T16:27:35.721Z,7.90
2023-01-09T16:30:05.210Z,7.90
2023-01-09T16:32:35.804Z,7.90
2023-01-09T16:35:07.263Z,7.80
2023-01-09T16:37:34.799Z,7.80
2023-01-09T16:40:05.412Z,7.80
2023-01-09T16:42:51.942Z,7.80
2023-01-09T16:45:20.333Z,7.80
2023-01-09T16:47:47.764Z,7.80
2023-01-09T16:50:15.317Z,7.90
2023-01-09T16:52:42.834Z,7.90
2023-01-09T16:55:11.417Z,7.90
2023-01-09T16:57:41.461Z,7.90
2023-01-09T17:00:19.567Z,7.90
2023-01-09T17:02:48.121Z,7.90
2023-01-09T17:05:15.677Z,8.00
2023-01-09T17:07:43.068Z,7.90
2023-01-09T17:10:20.480Z,7.90
2023-01-09T17:12:48.035Z,7.90
2023-01-09T17:15:16.314Z,7.90
2023-01-09T17:17:43.847Z,7.90
2023-01-09T17:20:16.491Z,7.90
2023-01-09T17:22:44.078Z,7.90
2023-01-09T17:25:34.660Z,7.90
2023-01-09T17:28:22.331Z,7.90
2023-01-09T17:30:49.981Z,7.90
2023-01-09T17:33:18.971Z,7.80
2023-01-09T17:35:46.602Z,7.80
2023-01-09T17:38:15.546Z,7.80
2023-01-09T17:40:43.997Z,7.90
2023-01-09T17:43:12.053Z,7.80
2023-01-09T17:45:41.531Z,7.80
2023-01-09T17:48:16.705Z,7.80
2023-01-09T17:50:45.718Z,7.80
2023-01-09T17:53:13.375Z,7.80
2023-01-09T17:55:41.908Z,7.70
2023-01-09T17:58:29.000Z,7.60
2023-01-09T18:00:57.607Z,7.50
2023-01-09T18:03:30.914Z,7.50
2023-01-09T18:05:58.446Z,7.50
2023-01-09T18:08:25.987Z,7.50
2023-01-09T18:10:53.467Z,7.50
2023-01-09T18:13:21.558Z,7.50
2023-01-09T18:15:48.972Z,7.60
2023-01-09T18:18:16.457Z,7.60
2023-01-09T18:20:45.387Z,7.50
2023-01-09T18:23:13.117Z,7.50
2023-01-09T18:25:42.257Z,7.40
2023-01-09T18:28:10.885Z,7.40
2023-01-09T18:30:38.312Z,7.40
2023-01-09T18:33:05.700Z,7.30
2023-01-09T18:35:34.046Z,7.30
2023-01-09T18:38:01.472Z,7.40
2023-01-09T18:40:29.038Z,7.30
2023-01-09T18:42:56.457Z,7.30
2023-01-09T18:45:23.953Z,7.30
2023-01-09T18:47:51.413Z,7.20
2023-01-09T18:50:19.261Z,7.20
2023-01-09T18:52:46.849Z,7.20
2023-01-09T18:55:14.580Z,7.20
2023-01-09T18:57:42.111Z,7.20
2023-01-09T19:00:11.555Z,7.20
2023-01-09T19:02:39.785Z,7.10
2023-01-09T19:05:07.372Z,7.20
2023-01-09T19:07:34.751Z,7.20
2023-01-09T19:10:02.166Z,7.10
2023-01-09T19:12:29.625Z,7.10
2023-01-09T19:14:57.040Z,7.20
2023-01-09T19:17:24.470Z,7.20
2023-01-09T19:19:51.879Z,7.10
2023-01-09T19:22:19.610Z,7.00
2023-01-09T19:24:47.079Z,7.00
2023-01-09T19:27:14.453Z,7.00
2023-01-09T19:29:41.898Z,7.00
2023-01-09T19:32:09.234Z,7.00
2023-01-09T19:34:36.637Z,7.00
2023-01-09T19:37:04.524Z,7.10
2023-01-09T19:39:32.426Z,7.00
2023-01-09T19:41:59.839Z,7.00
2023-01-09T19:44:27.293Z,7.00
2023-01-09T19:46:54.823Z,7.00
2023-01-09T19:49:22.292Z,7.00
2023-01-09T19:51:50.709Z,6.90
2023-01-09T19:54:18.077Z,6.90
2023-01-09T19:56:46.885Z,6.90
2023-01-09T19:59:14.768Z,6.90
2023-01-09T20:01:42.280Z,6.90
2023-01-09T20:04:15.852Z,6.90
2023-01-09T20:06:46.212Z,6.90
2023-01-09T20:09:15.767Z,6.80
2023-01-09T20:11:44.851Z,6.80
2023-01-09T20:14:17.157Z,6.80
2023-01-09T20:16:45.412Z,6.80
2023-01-09T20:19:14.183Z,6.70
2023-01-09T20:21:42.491Z,6.70
2023-01-09T20:24:16.611Z,6.70
2023-01-09T20:26:46.100Z,6.70
2023-01-09T20:29:13.683Z,6.70
2023-01-09T20:31:41.253Z,6.60
2023-01-09T20:34:11.962Z,6.60
2023-01-09T20:36:39.544Z,6.60
2023-01-09T20:39:08.186Z,6.60
2023-01-09T20:41:35.533Z,6.60
2023-01-09T20:44:07.089Z,6.60
2023-01-09T20:46:38.089Z,6.60
2023-01-09T20:49:07.557Z,6.60
2023-01-09T20:51:36.019Z,6.60
2023-01-09T20:54:03.766Z,6.50
2023-01-09T20:56:31.833Z,6.50
2023-01-09T20:59:00.353Z,6.50
2023-01-09T21:01:28.397Z,6.60
2023-01-09T21:03:57.081Z,6.60
2023-01-09T21:06:26.068Z,6.60
2023-01-09T21:08:53.583Z,6.60
2023-01-09T21:11:22.065Z,6.60
2023-01-09T21:13:49.764Z,6.60
2023-01-09T21:16:21.349Z,6.60
2023-01-09T21:18:49.168Z,6.50
2023-01-09T21:21:21.484Z,6.60
2023-01-09T21:23:51.967Z,6.60
2023-01-09T21:26:22.588Z,6.50
2023-01-09T21:28:55.297Z,6.50
2023-01-09T21:31:26.568Z,6.50
2023-01-09T21:33:54.611Z,6.50
2023-01-09T21:36:22.716Z,6.50
2023-01-09T21:38:53.471Z,6.40
2023-01-09T21:41:40.377Z,6.40
2023-01-09T21:44:30.876Z,6.40
2023-01-09T21:47:00.858Z,6.40
2023-01-09T21:49:31.313Z,6.40
2023-01-09T21:51:58.888Z,6.40
2023-01-09T21:54:26.521Z,6.30
2023-01-09T21:56:54.914Z,6.30
2023-01-09T21:59:23.019Z,6.30
2023-01-09T22:01:51.223Z,6.30
2023-01-09T22:04:22.831Z,6.30
2023-01-09T22:06:50.775Z,6.30
2023-01-09T22:09:18.198Z,6.30
2023-01-09T22:11:45.724Z,6.30
2023-01-09T22:14:15.367Z,6.20
2023-01-09T22:16:44.388Z,6.20
2023-01-09T22:19:18.056Z,6.20
2023-01-09T22:21:46.539Z,6.20
2023-01-09T22:24:17.056Z,6.20
2023-01-09T22:26:45.305Z,6.20
2023-01-09T22:29:12.927Z,6.20
2023-01-09T22:31:40.871Z,6.20
2023-01-09T22:34:13.381Z,6.20
2023-01-09T22:36:40.949Z,6.20
2023-01-09T22:39:13.649Z,6.20
2023-01-09T22:41:41.738Z,6.20
2023-01-09T22:44:13.263Z,6.20
2023-01-09T22:46:40.898Z,6.20
2023-01-09T22:49:09.282Z,6.10
2023-01-09T22:51:36.688Z,6.20
2023-01-09T22:54:07.693Z,6.20
2023-01-09T22:56:35.295Z,6.10
2023-01-09T22:59:02.789Z,6.10
2023-01-09T23:01:30.436Z,6.10
2023-01-09T23:03:58.732Z,6.10
2023-01-09T23:06:26.100Z,6.10
2023-01-09T23:08:53.850Z,6.10
2023-01-09T23:11:44.034Z,6.10
2023-01-09T23:14:12.344Z,6.10
2023-01-09T23:16:40.205Z,6.10
2023-01-09T23:19:14.408Z,6.10
2023-01-09T23:21:44.147Z,6.10
2023-01-09T23:24:12.581Z,6.00
2023-01-09T23:26:40.328Z,6.00
2023-01-09T23:29:07.808Z,6.10
2023-01-09T23:31:36.334Z,6.00
2023-01-09T23:34:04.992Z,6.10
2023-01-09T23:36:32.633Z,6.00
2023-01-09T23:39:00.339Z,6.10
2023-01-09T23:41:47.995Z,6.00
2023-01-09T23:44:15.554Z,6.00
2023-01-09T23:46:42.950Z,6.00
2023-01-09T23:49:10.433Z,6.00
2023-01-09T23:51:37.886Z,6.00
2023-01-09T23:54:05.448Z,5.90
2023-01-09T23:56:34.025Z,5.90
2023-01-09T23:59:02.306Z,5.90
